sensor_id;sensor_type;location;lat;lon;timestamp;temperature;humidity
10986;DHT22;5546;48.714;8.738;2022-09-09T00:04:00;17.60;96.10
10986;DHT22;5546;48.714;8.738;2022-09-09T00:09:45;17.60;96.10
10986;DHT22;5546;48.714;8.738;2022-09-09T00:12:18;17.60;96.40
10986;DHT22;5546;48.714;8.738;2022-09-09T00:14:54;17.50;96.30
10986;DHT22;5546;48.714;8.738;2022-09-09T00:22:48;17.90;96.10
10986;DHT22;5546;48.714;8.738;2022-09-09T00:25:26;17.80;96.20
10986;DHT22;5546;48.714;8.738;2022-09-09T00:27:54;17.70;95.70
10986;DHT22;5546;48.714;8.738;2022-09-09T00:30:25;17.70;96.00
10986;DHT22;5546;48.714;8.738;2022-09-09T00:32:58;17.70;96.20
10986;DHT22;5546;48.714;8.738;2022-09-09T00:35:37;17.40;95.80
10986;DHT22;5546;48.714;8.738;2022-09-09T00:38:34;17.40;96.00
10986;DHT22;5546;48.714;8.738;2022-09-09T00:44:00;17.90;95.70
10986;DHT22;5546;48.714;8.738;2022-09-09T00:55:52;17.90;95.40
10986;DHT22;5546;48.714;8.738;2022-09-09T00:58:19;17.80;95.80
10986;DHT22;5546;48.714;8.738;2022-09-09T01:00:50;17.80;95.50
10986;DHT22;5546;48.714;8.738;2022-09-09T01:14:30;17.20;96.70
10986;DHT22;5546;48.714;8.738;2022-09-09T01:17:04;17.50;96.20
10986;DHT22;5546;48.714;8.738;2022-09-09T01:22:33;17.60;96.00
10986;DHT22;5546;48.714;8.738;2022-09-09T01:25:20;17.50;95.90
10986;DHT22;5546;48.714;8.738;2022-09-09T01:27:48;17.60;96.10
10986;DHT22;5546;48.714;8.738;2022-09-09T01:30:17;17.60;96.30
10986;DHT22;5546;48.714;8.738;2022-09-09T01:32:45;17.80;95.60
10986;DHT22;5546;48.714;8.738;2022-09-09T01:38:12;17.50;96.70
10986;DHT22;5546;48.714;8.738;2022-09-09T01:40:38;17.50;97.00
10986;DHT22;5546;48.714;8.738;2022-09-09T01:43:04;17.50;96.50
10986;DHT22;5546;48.714;8.738;2022-09-09T01:45:31;17.40;96.60
10986;DHT22;5546;48.714;8.738;2022-09-09T01:47:58;17.50;96.70
10986;DHT22;5546;48.714;8.738;2022-09-09T01:50:24;17.50;96.90
10986;DHT22;5546;48.714;8.738;2022-09-09T01:52:53;17.30;97.40
10986;DHT22;5546;48.714;8.738;2022-09-09T01:55:33;17.40;97.40
10986;DHT22;5546;48.714;8.738;2022-09-09T02:00:38;17.40;97.20
10986;DHT22;5546;48.714;8.738;2022-09-09T02:03:23;17.40;97.10
10986;DHT22;5546;48.714;8.738;2022-09-09T02:11:21;16.90;98.40
10986;DHT22;5546;48.714;8.738;2022-09-09T02:13:49;16.90;98.40
10986;DHT22;5546;48.714;8.738;2022-09-09T02:16:26;16.70;98.60
10986;DHT22;5546;48.714;8.738;2022-09-09T02:19:11;17.00;98.50
10986;DHT22;5546;48.714;8.738;2022-09-09T02:21:40;17.20;97.80
10986;DHT22;5546;48.714;8.738;2022-09-09T02:24:07;17.20;98.10
10986;DHT22;5546;48.714;8.738;2022-09-09T02:26:38;17.00;98.80
10986;DHT22;5546;48.714;8.738;2022-09-09T02:29:09;17.10;98.10
10986;DHT22;5546;48.714;8.738;2022-09-09T02:31:38;17.00;98.20
10986;DHT22;5546;48.714;8.738;2022-09-09T02:34:05;16.80;98.00
10986;DHT22;5546;48.714;8.738;2022-09-09T02:36:36;16.70;98.30
10986;DHT22;5546;48.714;8.738;2022-09-09T02:39:05;16.80;98.90
10986;DHT22;5546;48.714;8.738;2022-09-09T02:41:34;16.50;99.20
10986;DHT22;5546;48.714;8.738;2022-09-09T02:44:00;16.70;98.90
10986;DHT22;5546;48.714;8.738;2022-09-09T02:46:43;16.70;98.60
10986;DHT22;5546;48.714;8.738;2022-09-09T02:49:28;16.80;98.80
10986;DHT22;5546;48.714;8.738;2022-09-09T02:52:05;16.90;98.80
10986;DHT22;5546;48.714;8.738;2022-09-09T02:54:37;16.90;98.20
10986;DHT22;5546;48.714;8.738;2022-09-09T02:57:12;16.90;98.60
10986;DHT22;5546;48.714;8.738;2022-09-09T02:59:39;16.90;98.70
10986;DHT22;5546;48.714;8.738;2022-09-09T03:02:05;16.90;98.80
10986;DHT22;5546;48.714;8.738;2022-09-09T03:04:31;17.00;98.30
10986;DHT22;5546;48.714;8.738;2022-09-09T03:06:58;16.50;98.60
10986;DHT22;5546;48.714;8.738;2022-09-09T03:09:24;16.50;98.80
10986;DHT22;5546;48.714;8.738;2022-09-09T03:11:50;16.70;98.70
10986;DHT22;5546;48.714;8.738;2022-09-09T03:14:16;16.60;98.70
10986;DHT22;5546;48.714;8.738;2022-09-09T03:16:42;16.60;98.50
10986;DHT22;5546;48.714;8.738;2022-09-09T03:19:08;16.60;98.40
10986;DHT22;5546;48.714;8.738;2022-09-09T03:21:34;16.20;98.90
10986;DHT22;5546;48.714;8.738;2022-09-09T03:24:01;16.10;98.70
10986;DHT22;5546;48.714;8.738;2022-09-09T03:26:29;16.40;98.30
10986;DHT22;5546;48.714;8.738;2022-09-09T03:28:55;16.50;98.30
10986;DHT22;5546;48.714;8.738;2022-09-09T03:31:20;16.40;98.10
10986;DHT22;5546;48.714;8.738;2022-09-09T03:33:46;16.40;98.40
10986;DHT22;5546;48.714;8.738;2022-09-09T03:36:12;16.20;98.90
10986;DHT22;5546;48.714;8.738;2022-09-09T03:38:37;16.40;98.60
10986;DHT22;5546;48.714;8.738;2022-09-09T03:41:03;16.40;98.70
10986;DHT22;5546;48.714;8.738;2022-09-09T03:43:30;16.40;98.50
10986;DHT22;5546;48.714;8.738;2022-09-09T03:45:56;15.80;98.90
10986;DHT22;5546;48.714;8.738;2022-09-09T03:48:22;15.40;99.90
10986;DHT22;5546;48.714;8.738;2022-09-09T03:50:52;15.40;99.90
10986;DHT22;5546;48.714;8.738;2022-09-09T03:53:20;15.70;99.70
10986;DHT22;5546;48.714;8.738;2022-09-09T03:55:47;15.90;99.20
10986;DHT22;5546;48.714;8.738;2022-09-09T03:58:14;15.90;99.50
10986;DHT22;5546;48.714;8.738;2022-09-09T04:00:40;16.20;99.30
10986;DHT22;5546;48.714;8.738;2022-09-09T04:03:10;16.50;98.60
10986;DHT22;5546;48.714;8.738;2022-09-09T04:05:36;16.60;98.30
10986;DHT22;5546;48.714;8.738;2022-09-09T04:08:08;16.50;98.20
10986;DHT22;5546;48.714;8.738;2022-09-09T04:10:34;16.60;98.40
10986;DHT22;5546;48.714;8.738;2022-09-09T04:13:03;16.60;98.60
10986;DHT22;5546;48.714;8.738;2022-09-09T04:15:29;16.80;97.90
10986;DHT22;5546;48.714;8.738;2022-09-09T04:17:54;16.80;98.10
10986;DHT22;5546;48.714;8.738;2022-09-09T04:20:20;16.50;98.10
10986;DHT22;5546;48.714;8.738;2022-09-09T04:22:47;16.50;98.40
10986;DHT22;5546;48.714;8.738;2022-09-09T04:25:13;16.50;98.30
10986;DHT22;5546;48.714;8.738;2022-09-09T04:27:38;16.70;97.90
10986;DHT22;5546;48.714;8.738;2022-09-09T04:30:04;16.70;97.80
10986;DHT22;5546;48.714;8.738;2022-09-09T04:32:32;16.70;98.10
10986;DHT22;5546;48.714;8.738;2022-09-09T04:34:58;16.70;98.10
10986;DHT22;5546;48.714;8.738;2022-09-09T04:37:23;16.60;98.10
10986;DHT22;5546;48.714;8.738;2022-09-09T04:39:50;16.60;98.40
10986;DHT22;5546;48.714;8.738;2022-09-09T04:42:15;16.60;98.40
10986;DHT22;5546;48.714;8.738;2022-09-09T04:44:43;16.60;98.00
10986;DHT22;5546;48.714;8.738;2022-09-09T04:47:09;16.70;98.20
10986;DHT22;5546;48.714;8.738;2022-09-09T04:49:35;16.90;97.80
10986;DHT22;5546;48.714;8.738;2022-09-09T04:52:02;16.90;97.50
10986;DHT22;5546;48.714;8.738;2022-09-09T04:54:28;17.00;97.20
10986;DHT22;5546;48.714;8.738;2022-09-09T04:56:54;17.00;97.50
10986;DHT22;5546;48.714;8.738;2022-09-09T04:59:20;16.80;98.00
10986;DHT22;5546;48.714;8.738;2022-09-09T05:01:47;16.90;97.80
10986;DHT22;5546;48.714;8.738;2022-09-09T05:04:12;16.50;97.90
10986;DHT22;5546;48.714;8.738;2022-09-09T05:06:39;16.50;98.20
10986;DHT22;5546;48.714;8.738;2022-09-09T05:09:05;16.50;98.10
10986;DHT22;5546;48.714;8.738;2022-09-09T05:11:32;16.50;98.20
10986;DHT22;5546;48.714;8.738;2022-09-09T05:14:01;16.40;98.50
10986;DHT22;5546;48.714;8.738;2022-09-09T05:16:26;16.50;98.40
10986;DHT22;5546;48.714;8.738;2022-09-09T05:18:52;16.70;97.40
10986;DHT22;5546;48.714;8.738;2022-09-09T05:21:19;16.70;97.60
10986;DHT22;5546;48.714;8.738;2022-09-09T05:23:46;16.60;97.70
10986;DHT22;5546;48.714;8.738;2022-09-09T05:26:14;16.60;98.00
10986;DHT22;5546;48.714;8.738;2022-09-09T05:28:39;16.60;98.30
10986;DHT22;5546;48.714;8.738;2022-09-09T05:31:06;16.70;98.10
10986;DHT22;5546;48.714;8.738;2022-09-09T05:33:38;16.80;97.60
10986;DHT22;5546;48.714;8.738;2022-09-09T05:36:08;17.10;97.00
10986;DHT22;5546;48.714;8.738;2022-09-09T05:38:34;17.20;97.20
10986;DHT22;5546;48.714;8.738;2022-09-09T05:41:01;17.20;97.10
10986;DHT22;5546;48.714;8.738;2022-09-09T05:43:28;17.10;97.30
10986;DHT22;5546;48.714;8.738;2022-09-09T05:46:08;16.80;97.30
10986;DHT22;5546;48.714;8.738;2022-09-09T05:48:44;16.50;97.70
10986;DHT22;5546;48.714;8.738;2022-09-09T05:51:17;16.50;98.00
10986;DHT22;5546;48.714;8.738;2022-09-09T05:53:43;16.40;97.90
10986;DHT22;5546;48.714;8.738;2022-09-09T05:56:29;16.20;98.30
10986;DHT22;5546;48.714;8.738;2022-09-09T05:58:56;16.00;98.70
10986;DHT22;5546;48.714;8.738;2022-09-09T06:01:27;16.00;98.90
10986;DHT22;5546;48.714;8.738;2022-09-09T06:03:54;16.10;99.10
10986;DHT22;5546;48.714;8.738;2022-09-09T06:06:30;16.50;98.30
10986;DHT22;5546;48.714;8.738;2022-09-09T06:08:56;16.50;98.70
10986;DHT22;5546;48.714;8.738;2022-09-09T06:11:33;16.80;98.60
10986;DHT22;5546;48.714;8.738;2022-09-09T06:13:59;17.30;97.70
10986;DHT22;5546;48.714;8.738;2022-09-09T06:16:27;17.30;97.30
10986;DHT22;5546;48.714;8.738;2022-09-09T06:18:54;17.30;97.10
10986;DHT22;5546;48.714;8.738;2022-09-09T06:23:46;18.00;95.70
10986;DHT22;5546;48.714;8.738;2022-09-09T06:26:18;18.00;95.90
10986;DHT22;5546;48.714;8.738;2022-09-09T06:28:46;18.10;95.60
10986;DHT22;5546;48.714;8.738;2022-09-09T06:31:14;18.00;95.80
10986;DHT22;5546;48.714;8.738;2022-09-09T06:33:41;18.10;95.70
10986;DHT22;5546;48.714;8.738;2022-09-09T06:36:12;18.10;96.00
10986;DHT22;5546;48.714;8.738;2022-09-09T06:38:37;18.50;94.80
10986;DHT22;5546;48.714;8.738;2022-09-09T06:41:04;18.50;95.10
10986;DHT22;5546;48.714;8.738;2022-09-09T06:43:31;18.70;94.30
10986;DHT22;5546;48.714;8.738;2022-09-09T06:46:05;18.80;94.40
10986;DHT22;5546;48.714;8.738;2022-09-09T06:48:33;18.80;94.70
10986;DHT22;5546;48.714;8.738;2022-09-09T06:51:16;19.40;94.50
10986;DHT22;5546;48.714;8.738;2022-09-09T06:53:44;19.80;92.80
10986;DHT22;5546;48.714;8.738;2022-09-09T06:58:36;18.90;93.50
10986;DHT22;5546;48.714;8.738;2022-09-09T07:01:06;18.90;93.20
10986;DHT22;5546;48.714;8.738;2022-09-09T07:03:32;18.90;93.70
10986;DHT22;5546;48.714;8.738;2022-09-09T07:05:59;18.90;94.10
10986;DHT22;5546;48.714;8.738;2022-09-09T07:08:25;19.40;93.10
10986;DHT22;5546;48.714;8.738;2022-09-09T07:10:52;19.80;92.60
10986;DHT22;5546;48.714;8.738;2022-09-09T07:13:24;20.10;91.20
10986;DHT22;5546;48.714;8.738;2022-09-09T07:15:51;20.00;91.40
10986;DHT22;5546;48.714;8.738;2022-09-09T07:18:17;19.90;91.80
10986;DHT22;5546;48.714;8.738;2022-09-09T07:20:43;20.10;92.10
10986;DHT22;5546;48.714;8.738;2022-09-09T07:23:08;20.50;91.40
10986;DHT22;5546;48.714;8.738;2022-09-09T07:25:34;22.50;87.20
10986;DHT22;5546;48.714;8.738;2022-09-09T07:27:59;23.40;83.40
10986;DHT22;5546;48.714;8.738;2022-09-09T07:30:25;23.40;83.90
10986;DHT22;5546;48.714;8.738;2022-09-09T07:32:53;23.90;80.80
10986;DHT22;5546;48.714;8.738;2022-09-09T07:35:19;23.90;81.50
10986;DHT22;5546;48.714;8.738;2022-09-09T07:37:45;23.90;81.10
10986;DHT22;5546;48.714;8.738;2022-09-09T07:40:10;23.10;81.90
10986;DHT22;5546;48.714;8.738;2022-09-09T07:42:36;23.10;82.80
10986;DHT22;5546;48.714;8.738;2022-09-09T07:45:03;22.90;82.60
10986;DHT22;5546;48.714;8.738;2022-09-09T07:47:29;22.80;83.80
10986;DHT22;5546;48.714;8.738;2022-09-09T07:49:54;21.50;87.00
10986;DHT22;5546;48.714;8.738;2022-09-09T07:52:21;21.60;87.90
10986;DHT22;5546;48.714;8.738;2022-09-09T07:54:46;22.90;87.20
10986;DHT22;5546;48.714;8.738;2022-09-09T07:57:12;24.40;80.30
10986;DHT22;5546;48.714;8.738;2022-09-09T07:59:38;25.90;76.00
10986;DHT22;5546;48.714;8.738;2022-09-09T08:02:03;25.90;75.40
10986;DHT22;5546;48.714;8.738;2022-09-09T08:04:29;26.40;73.90
10986;DHT22;5546;48.714;8.738;2022-09-09T08:07:00;26.60;74.20
10986;DHT22;5546;48.714;8.738;2022-09-09T08:09:27;28.30;66.70
10986;DHT22;5546;48.714;8.738;2022-09-09T08:11:54;27.00;70.00
10986;DHT22;5546;48.714;8.738;2022-09-09T08:14:22;28.70;66.60
10986;DHT22;5546;48.714;8.738;2022-09-09T08:16:49;29.80;64.40
10986;DHT22;5546;48.714;8.738;2022-09-09T08:19:15;29.20;63.70
10986;DHT22;5546;48.714;8.738;2022-09-09T08:21:41;29.20;64.30
10986;DHT22;5546;48.714;8.738;2022-09-09T08:24:08;28.60;65.80
10986;DHT22;5546;48.714;8.738;2022-09-09T08:26:37;28.10;67.30
10986;DHT22;5546;48.714;8.738;2022-09-09T08:29:06;28.30;65.60
10986;DHT22;5546;48.714;8.738;2022-09-09T08:31:38;29.10;64.70
10986;DHT22;5546;48.714;8.738;2022-09-09T08:34:05;29.90;62.20
10986;DHT22;5546;48.714;8.738;2022-09-09T08:36:37;28.10;63.00
10986;DHT22;5546;48.714;8.738;2022-09-09T08:39:06;26.00;67.50
10986;DHT22;5546;48.714;8.738;2022-09-09T08:47:24;25.80;70.50
10986;DHT22;5546;48.714;8.738;2022-09-09T08:50:19;26.20;68.90
10986;DHT22;5546;48.714;8.738;2022-09-09T08:58:05;26.70;66.50
10986;DHT22;5546;48.714;8.738;2022-09-09T09:00:52;26.80;64.90
10986;DHT22;5546;48.714;8.738;2022-09-09T09:09:06;27.20;66.10
10986;DHT22;5546;48.714;8.738;2022-09-09T09:11:36;28.10;63.00
10986;DHT22;5546;48.714;8.738;2022-09-09T09:14:21;27.00;64.90
10986;DHT22;5546;48.714;8.738;2022-09-09T09:17:00;26.00;67.00
10986;DHT22;5546;48.714;8.738;2022-09-09T09:19:27;25.70;68.40
10986;DHT22;5546;48.714;8.738;2022-09-09T09:21:59;25.50;71.10
10986;DHT22;5546;48.714;8.738;2022-09-09T09:24:42;26.60;67.80
10986;DHT22;5546;48.714;8.738;2022-09-09T09:27:18;25.70;68.60
10986;DHT22;5546;48.714;8.738;2022-09-09T09:29:46;24.90;71.00
10986;DHT22;5546;48.714;8.738;2022-09-09T09:32:17;24.80;70.90
10986;DHT22;5546;48.714;8.738;2022-09-09T09:34:49;24.00;74.00
10986;DHT22;5546;48.714;8.738;2022-09-09T09:37:29;24.10;74.90
10986;DHT22;5546;48.714;8.738;2022-09-09T09:39:55;24.00;74.80
10986;DHT22;5546;48.714;8.738;2022-09-09T09:42:21;24.00;75.50
10986;DHT22;5546;48.714;8.738;2022-09-09T09:44:47;24.10;73.20
10986;DHT22;5546;48.714;8.738;2022-09-09T09:47:21;24.70;70.70
10986;DHT22;5546;48.714;8.738;2022-09-09T09:49:57;24.80;71.30
10986;DHT22;5546;48.714;8.738;2022-09-09T09:52:31;24.80;70.20
10986;DHT22;5546;48.714;8.738;2022-09-09T09:54:58;24.20;71.00
10986;DHT22;5546;48.714;8.738;2022-09-09T09:57:28;24.70;68.60
10986;DHT22;5546;48.714;8.738;2022-09-09T10:00:22;24.70;68.40
10986;DHT22;5546;48.714;8.738;2022-09-09T10:02:48;24.50;69.80
10986;DHT22;5546;48.714;8.738;2022-09-09T10:05:20;24.20;70.30
10986;DHT22;5546;48.714;8.738;2022-09-09T10:07:59;24.10;71.00
10986;DHT22;5546;48.714;8.738;2022-09-09T10:10:40;24.10;73.10
10986;DHT22;5546;48.714;8.738;2022-09-09T10:13:30;23.30;81.10
10986;DHT22;5546;48.714;8.738;2022-09-09T10:16:31;23.30;81.40
10986;DHT22;5546;48.714;8.738;2022-09-09T10:19:05;23.10;83.80
10986;DHT22;5546;48.714;8.738;2022-09-09T10:27:15;23.30;72.80
10986;DHT22;5546;48.714;8.738;2022-09-09T10:30:15;22.90;75.60
10986;DHT22;5546;48.714;8.738;2022-09-09T10:35:33;23.20;71.30
10986;DHT22;5546;48.714;8.738;2022-09-09T10:38:16;23.20;72.00
10986;DHT22;5546;48.714;8.738;2022-09-09T10:43:54;22.30;73.00
10986;DHT22;5546;48.714;8.738;2022-09-09T10:49:28;22.30;74.40
10986;DHT22;5546;48.714;8.738;2022-09-09T10:52:17;22.20;75.20
10986;DHT22;5546;48.714;8.738;2022-09-09T10:54:58;21.90;77.20
10986;DHT22;5546;48.714;8.738;2022-09-09T10:57:45;22.00;78.50
10986;DHT22;5546;48.714;8.738;2022-09-09T11:00:20;21.50;81.20
10986;DHT22;5546;48.714;8.738;2022-09-09T11:02:51;21.40;81.70
10986;DHT22;5546;48.714;8.738;2022-09-09T11:05:20;20.60;88.00
10986;DHT22;5546;48.714;8.738;2022-09-09T11:07:56;19.90;88.80
10986;DHT22;5546;48.714;8.738;2022-09-09T11:10:30;19.70;91.50
10986;DHT22;5546;48.714;8.738;2022-09-09T11:13:04;20.00;92.70
10986;DHT22;5546;48.714;8.738;2022-09-09T11:15:49;20.40;92.00
10986;DHT22;5546;48.714;8.738;2022-09-09T11:18:21;20.40;92.10
10986;DHT22;5546;48.714;8.738;2022-09-09T11:20:58;21.00;91.80
10986;DHT22;5546;48.714;8.738;2022-09-09T11:23:52;20.90;92.00
10986;DHT22;5546;48.714;8.738;2022-09-09T11:26:38;21.10;90.80
10986;DHT22;5546;48.714;8.738;2022-09-09T11:29:39;22.10;90.60
10986;DHT22;5546;48.714;8.738;2022-09-09T11:32:25;22.10;90.40
10986;DHT22;5546;48.714;8.738;2022-09-09T11:37:48;21.80;88.00
10986;DHT22;5546;48.714;8.738;2022-09-09T11:40:27;22.10;85.00
10986;DHT22;5546;48.714;8.738;2022-09-09T11:43:11;22.10;85.50
10986;DHT22;5546;48.714;8.738;2022-09-09T11:45:39;23.20;84.60
10986;DHT22;5546;48.714;8.738;2022-09-09T11:48:10;24.00;83.40
10986;DHT22;5546;48.714;8.738;2022-09-09T11:50:58;25.70;78.50
10986;DHT22;5546;48.714;8.738;2022-09-09T11:53:23;28.60;70.00
10986;DHT22;5546;48.714;8.738;2022-09-09T11:56:10;28.60;70.60
10986;DHT22;5546;48.714;8.738;2022-09-09T11:58:42;31.40;63.50
10986;DHT22;5546;48.714;8.738;2022-09-09T12:04:29;32.30;57.20
10986;DHT22;5546;48.714;8.738;2022-09-09T12:07:03;32.40;55.20
10986;DHT22;5546;48.714;8.738;2022-09-09T12:17:57;30.90;57.90
10986;DHT22;5546;48.714;8.738;2022-09-09T12:34:52;34.90;46.50
10986;DHT22;5546;48.714;8.738;2022-09-09T12:37:34;33.50;48.80
10986;DHT22;5546;48.714;8.738;2022-09-09T12:40:22;33.40;49.40
10986;DHT22;5546;48.714;8.738;2022-09-09T12:42:48;34.00;48.50
10986;DHT22;5546;48.714;8.738;2022-09-09T12:45:25;34.00;46.90
10986;DHT22;5546;48.714;8.738;2022-09-09T12:47:58;31.90;48.10
10986;DHT22;5546;48.714;8.738;2022-09-09T12:50:31;30.70;51.70
10986;DHT22;5546;48.714;8.738;2022-09-09T12:53:07;31.90;50.20
10986;DHT22;5546;48.714;8.738;2022-09-09T12:55:36;32.70;49.10
10986;DHT22;5546;48.714;8.738;2022-09-09T12:58:04;32.80;49.60
10986;DHT22;5546;48.714;8.738;2022-09-09T13:00:32;33.80;46.40
10986;DHT22;5546;48.714;8.738;2022-09-09T13:02:59;34.50;43.80
10986;DHT22;5546;48.714;8.738;2022-09-09T13:05:28;33.40;43.20
10986;DHT22;5546;48.714;8.738;2022-09-09T13:08:20;32.50;44.60
10986;DHT22;5546;48.714;8.738;2022-09-09T13:13:20;32.50;46.20
10986;DHT22;5546;48.714;8.738;2022-09-09T13:15:54;33.50;44.70
10986;DHT22;5546;48.714;8.738;2022-09-09T13:18:26;33.60;44.10
10986;DHT22;5546;48.714;8.738;2022-09-09T13:20:52;33.30;44.10
10986;DHT22;5546;48.714;8.738;2022-09-09T13:23:19;33.10;43.80
10986;DHT22;5546;48.714;8.738;2022-09-09T13:26:00;32.40;44.30
10986;DHT22;5546;48.714;8.738;2022-09-09T13:28:30;32.40;43.70
10986;DHT22;5546;48.714;8.738;2022-09-09T13:31:04;32.60;43.90
10986;DHT22;5546;48.714;8.738;2022-09-09T13:33:34;33.40;43.10
10986;DHT22;5546;48.714;8.738;2022-09-09T13:36:03;33.50;43.70
10986;DHT22;5546;48.714;8.738;2022-09-09T13:38:33;34.20;43.50
10986;DHT22;5546;48.714;8.738;2022-09-09T13:41:03;31.90;44.20
10986;DHT22;5546;48.714;8.738;2022-09-09T13:43:52;32.20;44.10
10986;DHT22;5546;48.714;8.738;2022-09-09T13:54:04;32.20;44.80
10986;DHT22;5546;48.714;8.738;2022-09-09T13:56:30;32.50;44.20
10986;DHT22;5546;48.714;8.738;2022-09-09T13:58:57;30.80;46.50
10986;DHT22;5546;48.714;8.738;2022-09-09T14:01:23;30.80;46.90
10986;DHT22;5546;48.714;8.738;2022-09-09T14:03:49;30.60;44.40
10986;DHT22;5546;48.714;8.738;2022-09-09T14:06:14;30.40;44.90
10986;DHT22;5546;48.714;8.738;2022-09-09T14:08:40;29.30;46.50
10986;DHT22;5546;48.714;8.738;2022-09-09T14:11:07;29.40;47.10
10986;DHT22;5546;48.714;8.738;2022-09-09T14:13:36;30.20;46.30
10986;DHT22;5546;48.714;8.738;2022-09-09T14:16:02;29.30;46.90
10986;DHT22;5546;48.714;8.738;2022-09-09T14:18:28;29.20;47.60
10986;DHT22;5546;48.714;8.738;2022-09-09T14:23:20;29.00;47.60
10986;DHT22;5546;48.714;8.738;2022-09-09T14:25:47;28.90;47.40
10986;DHT22;5546;48.714;8.738;2022-09-09T14:28:14;27.00;50.50
10986;DHT22;5546;48.714;8.738;2022-09-09T14:30:41;26.60;51.60
10986;DHT22;5546;48.714;8.738;2022-09-09T14:33:09;26.80;51.30
10986;DHT22;5546;48.714;8.738;2022-09-09T14:35:35;26.80;51.80
10986;DHT22;5546;48.714;8.738;2022-09-09T14:38:02;25.70;53.60
10986;DHT22;5546;48.714;8.738;2022-09-09T14:40:28;25.70;54.20
10986;DHT22;5546;48.714;8.738;2022-09-09T14:42:53;26.00;54.10
10986;DHT22;5546;48.714;8.738;2022-09-09T14:45:19;26.20;53.00
10986;DHT22;5546;48.714;8.738;2022-09-09T14:47:46;26.20;53.50
10986;DHT22;5546;48.714;8.738;2022-09-09T14:50:12;26.30;52.90
10986;DHT22;5546;48.714;8.738;2022-09-09T14:52:38;26.40;53.20
10986;DHT22;5546;48.714;8.738;2022-09-09T14:55:04;26.50;52.40
10986;DHT22;5546;48.714;8.738;2022-09-09T14:57:30;26.00;53.00
10986;DHT22;5546;48.714;8.738;2022-09-09T14:59:56;26.10;53.30
10986;DHT22;5546;48.714;8.738;2022-09-09T15:02:22;25.70;53.90
10986;DHT22;5546;48.714;8.738;2022-09-09T15:04:47;25.70;59.70
10986;DHT22;5546;48.714;8.738;2022-09-09T15:07:15;25.60;55.00
10986;DHT22;5546;48.714;8.738;2022-09-09T15:09:41;25.60;55.10
10986;DHT22;5546;48.714;8.738;2022-09-09T15:12:07;24.90;55.70
10986;DHT22;5546;48.714;8.738;2022-09-09T15:14:33;24.90;56.30
10986;DHT22;5546;48.714;8.738;2022-09-09T15:16:59;24.50;62.80
10986;DHT22;5546;48.714;8.738;2022-09-09T15:21:50;23.90;57.70
10986;DHT22;5546;48.714;8.738;2022-09-09T15:24:16;23.90;64.10
10986;DHT22;5546;48.714;8.738;2022-09-09T15:26:42;24.20;58.80
10986;DHT22;5546;48.714;8.738;2022-09-09T15:29:08;24.10;58.60
10986;DHT22;5546;48.714;8.738;2022-09-09T15:31:34;24.10;59.10
10986;DHT22;5546;48.714;8.738;2022-09-09T15:34:02;24.20;57.60
10986;DHT22;5546;48.714;8.738;2022-09-09T15:38:59;24.10;62.30
10986;DHT22;5546;48.714;8.738;2022-09-09T15:41:25;24.30;65.00
10986;DHT22;5546;48.714;8.738;2022-09-09T15:43:52;24.10;67.10
10986;DHT22;5546;48.714;8.738;2022-09-09T15:48:55;23.20;67.60
10986;DHT22;5546;48.714;8.738;2022-09-09T15:51:22;23.50;61.40
10986;DHT22;5546;48.714;8.738;2022-09-09T15:53:48;23.50;62.00
10986;DHT22;5546;48.714;8.738;2022-09-09T15:56:14;23.50;63.30
10986;DHT22;5546;48.714;8.738;2022-09-09T15:58:39;23.00;63.60
10986;DHT22;5546;48.714;8.738;2022-09-09T16:01:07;22.80;67.50
10986;DHT22;5546;48.714;8.738;2022-09-09T16:03:37;22.40;71.70
10986;DHT22;5546;48.714;8.738;2022-09-09T16:06:05;22.40;71.30
10986;DHT22;5546;48.714;8.738;2022-09-09T16:08:36;21.30;71.10
10986;DHT22;5546;48.714;8.738;2022-09-09T16:11:22;21.40;71.20
10986;DHT22;5546;48.714;8.738;2022-09-09T16:13:49;21.10;73.80
10986;DHT22;5546;48.714;8.738;2022-09-09T16:16:16;21.00;74.50
10986;DHT22;5546;48.714;8.738;2022-09-09T16:18:44;21.50;74.10
10986;DHT22;5546;48.714;8.738;2022-09-09T16:21:17;21.50;75.20
10986;DHT22;5546;48.714;8.738;2022-09-09T16:23:44;21.40;75.80
10986;DHT22;5546;48.714;8.738;2022-09-09T16:26:14;21.10;77.60
10986;DHT22;5546;48.714;8.738;2022-09-09T16:28:40;21.00;80.40
10986;DHT22;5546;48.714;8.738;2022-09-09T16:31:10;21.40;80.40
10986;DHT22;5546;48.714;8.738;2022-09-09T16:33:39;21.60;81.20
10986;DHT22;5546;48.714;8.738;2022-09-09T16:36:07;21.50;82.30
10986;DHT22;5546;48.714;8.738;2022-09-09T16:38:33;21.10;87.10
10986;DHT22;5546;48.714;8.738;2022-09-09T16:41:03;21.20;84.10
10986;DHT22;5546;48.714;8.738;2022-09-09T16:43:30;21.20;84.70
10986;DHT22;5546;48.714;8.738;2022-09-09T16:45:55;20.90;86.80
10986;DHT22;5546;48.714;8.738;2022-09-09T16:48:21;20.40;89.70
10986;DHT22;5546;48.714;8.738;2022-09-09T16:50:46;20.40;90.10
10986;DHT22;5546;48.714;8.738;2022-09-09T16:53:12;20.10;89.70
10986;DHT22;5546;48.714;8.738;2022-09-09T16:55:40;20.00;90.10
10986;DHT22;5546;48.714;8.738;2022-09-09T16:58:07;19.30;91.40
10986;DHT22;5546;48.714;8.738;2022-09-09T17:03:01;18.80;93.50
10986;DHT22;5546;48.714;8.738;2022-09-09T17:05:28;19.00;94.20
10986;DHT22;5546;48.714;8.738;2022-09-09T17:07:54;19.10;94.50
10986;DHT22;5546;48.714;8.738;2022-09-09T17:10:23;19.60;93.40
10986;DHT22;5546;48.714;8.738;2022-09-09T17:15:14;19.50;92.60
10986;DHT22;5546;48.714;8.738;2022-09-09T17:17:40;19.20;94.00
10986;DHT22;5546;48.714;8.738;2022-09-09T17:20:08;18.60;94.80
10986;DHT22;5546;48.714;8.738;2022-09-09T17:22:34;18.70;94.70
10986;DHT22;5546;48.714;8.738;2022-09-09T17:27:26;18.90;94.50
10986;DHT22;5546;48.714;8.738;2022-09-09T17:29:51;18.80;94.80
10986;DHT22;5546;48.714;8.738;2022-09-09T17:32:17;19.00;94.20
10986;DHT22;5546;48.714;8.738;2022-09-09T17:34:43;18.70;95.50
10986;DHT22;5546;48.714;8.738;2022-09-09T17:37:09;18.80;94.60
10986;DHT22;5546;48.714;8.738;2022-09-09T17:39:34;18.80;95.00
10986;DHT22;5546;48.714;8.738;2022-09-09T17:42:00;18.80;95.20
10986;DHT22;5546;48.714;8.738;2022-09-09T17:44:26;18.30;96.20
10986;DHT22;5546;48.714;8.738;2022-09-09T17:46:51;18.20;96.40
10986;DHT22;5546;48.714;8.738;2022-09-09T17:49:17;18.70;94.10
10986;DHT22;5546;48.714;8.738;2022-09-09T17:51:44;18.70;94.60
10986;DHT22;5546;48.714;8.738;2022-09-09T17:54:13;19.00;94.90
10986;DHT22;5546;48.714;8.738;2022-09-09T17:56:39;19.00;95.20
10986;DHT22;5546;48.714;8.738;2022-09-09T17:59:07;19.10;95.20
10986;DHT22;5546;48.714;8.738;2022-09-09T18:01:36;19.20;94.20
10986;DHT22;5546;48.714;8.738;2022-09-09T18:04:04;18.40;95.80
10986;DHT22;5546;48.714;8.738;2022-09-09T18:06:35;18.40;96.10
10986;DHT22;5546;48.714;8.738;2022-09-09T18:09:04;19.00;94.80
10986;DHT22;5546;48.714;8.738;2022-09-09T18:11:34;19.10;95.10
10986;DHT22;5546;48.714;8.738;2022-09-09T18:14:02;19.10;95.30
10986;DHT22;5546;48.714;8.738;2022-09-09T18:16:30;18.90;94.90
10986;DHT22;5546;48.714;8.738;2022-09-09T18:18:57;18.90;95.20
10986;DHT22;5546;48.714;8.738;2022-09-09T18:21:23;19.00;94.90
10986;DHT22;5546;48.714;8.738;2022-09-09T18:23:50;18.40;95.20